createdAt,value
2018-12-16T00:01:02.509Z,10.45
2018-12-16T00:03:32.022Z,13.35
2018-12-16T00:06:01.542Z,18.70
2018-12-16T00:08:31.015Z,10.60
2018-12-16T00:11:00.500Z,10.43
2018-12-16T00:13:30.144Z,10.20
2018-12-16T00:16:00.149Z,9.48
2018-12-16T00:18:29.634Z,14.25
2018-12-16T00:21:00.834Z,9.95
2018-12-16T00:23:30.529Z,10.23
2018-12-16T00:26:05.783Z,9.70
2018-12-16T00:28:35.800Z,8.88
2018-12-16T00:31:11.977Z,8.60
2018-12-16T00:33:41.263Z,9.63
2018-12-16T00:36:10.803Z,11.12
2018-12-16T00:38:40.480Z,9.03
2018-12-16T00:41:09.883Z,8.55
2018-12-16T00:43:39.722Z,9.15
2018-12-16T00:46:09.933Z,8.35
2018-12-16T00:48:39.631Z,10.40
2018-12-16T00:51:09.608Z,10.70
2018-12-16T00:53:39.744Z,8.53
2018-12-16T00:56:09.963Z,8.75
2018-12-16T00:58:39.831Z,8.13
2018-12-16T01:01:09.515Z,9.28
2018-12-16T01:03:41.608Z,8.85
2018-12-16T01:06:11.206Z,8.85
2018-12-16T01:08:40.790Z,8.73
2018-12-16T01:11:10.304Z,9.38
2018-12-16T01:13:39.706Z,10.32
2018-12-16T01:16:09.010Z,8.50
2018-12-16T01:18:38.416Z,8.55
2018-12-16T01:21:08.023Z,11.90
2018-12-16T01:23:38.039Z,10.20
2018-12-16T01:26:08.058Z,10.00
2018-12-16T01:28:37.521Z,10.28
2018-12-16T01:31:07.274Z,9.63
2018-12-16T01:33:39.751Z,10.15
2018-12-16T01:36:09.258Z,7.97
2018-12-16T01:38:39.037Z,8.00
2018-12-16T01:41:08.430Z,8.80
2018-12-16T01:43:37.879Z,7.78
2018-12-16T01:46:07.691Z,8.68
2018-12-16T01:48:37.708Z,9.65
2018-12-16T01:51:07.623Z,8.80
2018-12-16T01:53:37.531Z,10.05
2018-12-16T01:56:06.737Z,8.83
2018-12-16T01:58:36.755Z,10.13
2018-12-16T02:01:06.694Z,9.05
2018-12-16T02:03:41.386Z,9.45
2018-12-16T02:06:11.316Z,9.90
2018-12-16T02:08:41.334Z,9.95
2018-12-16T02:11:11.468Z,10.10
2018-12-16T02:13:41.606Z,9.18
2018-12-16T02:16:11.684Z,9.95
2018-12-16T02:18:41.510Z,9.63
2018-12-16T02:21:10.887Z,10.15
2018-12-16T02:23:40.771Z,9.33
2018-12-16T02:26:10.777Z,9.50
2018-12-16T02:28:40.537Z,10.48
2018-12-16T02:31:10.472Z,10.53
2018-12-16T02:33:41.202Z,9.85
2018-12-16T02:36:11.020Z,10.13
2018-12-16T02:38:40.739Z,10.10
2018-12-16T02:41:10.444Z,10.82
2018-12-16T02:43:40.298Z,10.13
2018-12-16T02:46:09.593Z,9.90
2018-12-16T02:48:39.765Z,9.60
2018-12-16T02:51:10.403Z,9.15
2018-12-16T02:53:39.909Z,10.80
2018-12-16T02:56:09.381Z,7.55
2018-12-16T02:58:38.810Z,9.35
2018-12-16T03:01:08.123Z,9.70
2018-12-16T03:03:37.762Z,10.08
2018-12-16T03:06:07.656Z,10.15
2018-12-16T03:08:37.387Z,10.98
2018-12-16T03:11:07.380Z,9.80
2018-12-16T03:13:36.580Z,12.25
2018-12-16T03:16:05.989Z,11.12
2018-12-16T03:18:35.795Z,12.63
2018-12-16T03:21:05.364Z,11.18
2018-12-16T03:23:35.306Z,11.50
2018-12-16T03:26:05.119Z,11.65
2018-12-16T03:28:34.950Z,11.48
2018-12-16T03:31:04.570Z,11.10
2018-12-16T03:33:36.358Z,11.60
2018-12-16T03:36:07.054Z,11.83
2018-12-16T03:38:36.862Z,12.00
2018-12-16T03:41:07.187Z,12.33
2018-12-16T03:43:37.070Z,12.13
2018-12-16T03:46:06.798Z,11.50
2018-12-16T03:48:36.528Z,12.13
2018-12-16T03:51:06.114Z,12.55
2018-12-16T03:53:35.837Z,13.68
2018-12-16T03:56:05.964Z,13.10
2018-12-16T03:58:36.439Z,12.78
2018-12-16T04:01:06.514Z,12.50
2018-12-16T04:03:35.915Z,13.05
2018-12-16T04:06:05.428Z,13.85
2018-12-16T04:08:34.829Z,13.90
2018-12-16T04:11:04.532Z,14.25
2018-12-16T04:13:34.233Z,13.22
2018-12-16T04:16:04.769Z,13.30
2018-12-16T04:18:34.183Z,13.68
2018-12-16T04:21:03.200Z,13.83
2018-12-16T04:23:32.761Z,13.25
2018-12-16T04:26:02.802Z,13.72
2018-12-16T04:28:32.413Z,14.38
2018-12-16T04:31:01.873Z,14.35
2018-12-16T04:33:31.032Z,14.00
2018-12-16T04:36:00.313Z,13.08
2018-12-16T04:38:29.360Z,14.03
2018-12-16T04:40:58.633Z,14.25
2018-12-16T04:43:27.793Z,13.72
2018-12-16T04:45:59.960Z,15.35
2018-12-16T04:48:29.379Z,13.30
2018-12-16T04:50:58.476Z,12.85
2018-12-16T04:53:34.856Z,15.10
2018-12-16T04:55:59.721Z,15.08
2018-12-16T04:58:28.781Z,14.45
2018-12-16T05:00:57.912Z,15.08
2018-12-16T05:03:27.472Z,14.00
2018-12-16T05:05:56.864Z,15.28
2018-12-16T05:08:26.128Z,15.72
2018-12-16T05:10:55.404Z,15.30
2018-12-16T05:13:40.630Z,15.75
2018-12-16T05:16:10.031Z,15.90
2018-12-16T05:18:39.071Z,15.83
2018-12-16T05:21:08.264Z,14.87
2018-12-16T05:23:41.920Z,15.48
2018-12-16T05:26:09.191Z,15.85
2018-12-16T05:28:38.474Z,15.32
2018-12-16T05:31:07.997Z,17.27
2018-12-16T05:33:37.394Z,16.35
2018-12-16T05:36:06.789Z,16.57
2018-12-16T05:38:36.308Z,17.40
2018-12-16T05:41:05.729Z,16.40
2018-12-16T05:43:34.986Z,15.25
2018-12-16T05:46:04.391Z,16.40
2018-12-16T05:48:33.701Z,14.50
2018-12-16T05:51:03.072Z,17.20
2018-12-16T05:53:32.594Z,17.23
2018-12-16T05:56:01.869Z,16.23
2018-12-16T05:58:30.786Z,16.30
2018-12-16T06:01:06.428Z,17.50
2018-12-16T06:03:36.669Z,14.03
2018-12-16T06:06:06.041Z,14.58
2018-12-16T06:08:35.110Z,15.05
2018-12-16T06:11:04.785Z,16.12
2018-12-16T06:13:34.625Z,14.38
2018-12-16T06:16:04.084Z,14.95
2018-12-16T06:18:33.701Z,14.13
2018-12-16T06:21:03.119Z,13.30
2018-12-16T06:23:32.269Z,14.65
2018-12-16T06:26:01.692Z,15.38
2018-12-16T06:28:30.768Z,14.30
2018-12-16T06:30:59.829Z,15.08
2018-12-16T06:33:28.628Z,14.83
2018-12-16T06:35:57.788Z,14.65
2018-12-16T06:38:27.069Z,12.33
2018-12-16T06:40:56.232Z,14.80
2018-12-16T06:43:25.339Z,13.38
2018-12-16T06:45:54.662Z,12.98
2018-12-16T06:48:29.759Z,12.95
2018-12-16T06:50:58.957Z,14.58
2018-12-16T06:53:27.900Z,14.00
2018-12-16T06:55:57.055Z,14.53
2018-12-16T06:58:26.114Z,14.15
2018-12-16T07:00:55.142Z,12.47
2018-12-16T07:03:24.301Z,14.03
2018-12-16T07:05:53.591Z,15.48
2018-12-16T07:08:22.711Z,14.58
2018-12-16T07:10:51.718Z,14.03
2018-12-16T07:13:21.300Z,14.45
2018-12-16T07:15:50.403Z,12.75
2018-12-16T07:18:19.379Z,13.58
2018-12-16T07:20:48.535Z,14.33
2018-12-16T07:23:20.874Z,13.70
2018-12-16T07:25:50.056Z,12.25
2018-12-16T07:28:19.050Z,12.88
2018-12-16T07:30:48.209Z,13.83
2018-12-16T07:33:17.216Z,13.50
2018-12-16T07:35:46.562Z,14.03
2018-12-16T07:38:15.895Z,12.78
2018-12-16T07:40:45.203Z,15.00
2018-12-16T07:43:14.501Z,14.33
2018-12-16T07:45:43.505Z,14.25
2018-12-16T07:48:12.462Z,15.70
2018-12-16T07:50:42.057Z,14.78
2018-12-16T07:53:11.455Z,14.13
2018-12-16T07:55:40.610Z,13.15
2018-12-16T07:58:09.509Z,13.35
2018-12-16T08:00:38.800Z,14.07
2018-12-16T08:03:08.003Z,14.53
2018-12-16T08:05:37.145Z,15.03
2018-12-16T08:08:06.531Z,15.30
2018-12-16T08:10:35.934Z,18.20
2018-12-16T08:13:05.094Z,16.48
2018-12-16T08:15:34.758Z,15.50
2018-12-16T08:18:04.430Z,16.35
2018-12-16T08:20:34.010Z,14.98
2018-12-16T08:23:03.171Z,15.68
2018-12-16T08:25:32.197Z,15.30
2018-12-16T08:28:01.377Z,15.72
2018-12-16T08:30:30.411Z,14.50
2018-12-16T08:32:59.697Z,14.80
2018-12-16T08:35:28.614Z,15.68
2018-12-16T08:37:57.788Z,15.72
2018-12-16T08:40:26.630Z,13.43
2018-12-16T08:42:55.737Z,14.00
2018-12-16T08:45:24.652Z,15.72
2018-12-16T08:47:53.810Z,14.60
2018-12-16T08:50:22.984Z,13.48
2018-12-16T08:52:52.249Z,17.07
2018-12-16T08:55:21.309Z,14.85
2018-12-16T08:57:50.409Z,15.15
2018-12-16T09:00:19.910Z,16.45
2018-12-16T09:02:48.966Z,15.80
2018-12-16T09:05:18.288Z,16.60
2018-12-16T09:07:47.329Z,19.00
2018-12-16T09:10:16.334Z,19.00
2018-12-16T09:12:45.410Z,16.10
2018-12-16T09:15:14.687Z,16.67
2018-12-16T09:17:43.788Z,18.57
2018-12-16T09:20:12.788Z,18.02
2018-12-16T09:22:41.930Z,17.65
2018-12-16T09:25:10.864Z,21.00
2018-12-16T09:27:39.898Z,18.20
2018-12-16T09:30:10.974Z,19.60
2018-12-16T09:32:39.869Z,17.90
2018-12-16T09:35:08.925Z,18.57
2018-12-16T09:37:38.087Z,19.05
2018-12-16T09:40:07.851Z,19.45
2018-12-16T09:42:36.887Z,17.37
2018-12-16T09:45:06.527Z,17.77
2018-12-16T09:47:36.296Z,19.60
2018-12-16T09:50:06.169Z,21.05
2018-12-16T09:52:35.445Z,19.87
2018-12-16T09:55:04.964Z,20.88
2018-12-16T09:57:34.249Z,20.10
2018-12-16T10:00:03.416Z,18.50
2018-12-16T10:02:32.809Z,19.45
2018-12-16T10:05:01.844Z,18.37
2018-12-16T10:07:30.883Z,19.90
2018-12-16T10:09:59.803Z,20.50
2018-12-16T10:12:28.966Z,20.12
2018-12-16T10:14:58.246Z,18.20
2018-12-16T10:17:27.405Z,18.27
2018-12-16T10:19:56.566Z,21.55
2018-12-16T10:22:25.609Z,19.32
2018-12-16T10:24:54.402Z,18.25
2018-12-16T10:27:23.321Z,20.32
2018-12-16T10:29:52.711Z,19.70
2018-12-16T10:32:21.760Z,17.95
2018-12-16T10:34:50.802Z,20.17
2018-12-16T10:37:19.965Z,21.23
2018-12-16T10:39:49.085Z,19.10
2018-12-16T10:42:18.163Z,18.98
2018-12-16T10:44:47.441Z,18.70
2018-12-16T10:47:16.498Z,19.73
2018-12-16T10:49:45.880Z,18.90
2018-12-16T10:52:14.976Z,19.05
2018-12-16T10:54:44.206Z,19.85
2018-12-16T10:58:22.056Z,20.80
2018-12-16T11:00:56.706Z,20.60
2018-12-16T11:03:25.625Z,20.20
2018-12-16T11:05:54.642Z,19.05
2018-12-16T11:08:23.735Z,19.20
2018-12-16T11:10:52.843Z,21.17
2018-12-16T11:13:21.881Z,20.52
2018-12-16T11:15:50.935Z,20.15
2018-12-16T11:18:20.078Z,19.55
2018-12-16T11:20:49.116Z,19.27
2018-12-16T11:23:24.419Z,20.82
2018-12-16T11:25:55.023Z,21.87
2018-12-16T11:28:23.887Z,19.50
2018-12-16T11:30:53.213Z,19.70
2018-12-16T11:33:22.126Z,19.42
2018-12-16T11:35:51.281Z,20.25
2018-12-16T11:38:20.434Z,21.45
2018-12-16T11:40:49.476Z,20.30
2018-12-16T11:43:18.403Z,20.90
2018-12-16T11:45:47.314Z,21.27
2018-12-16T11:48:16.599Z,22.45
2018-12-16T11:50:45.333Z,21.80
2018-12-16T11:53:14.553Z,21.42
2018-12-16T11:55:43.510Z,22.70
2018-12-16T11:58:12.333Z,20.82
2018-12-16T12:00:41.439Z,21.20
2018-12-16T12:03:10.172Z,21.33
2018-12-16T12:05:39.272Z,22.95
2018-12-16T12:08:08.312Z,21.97
2018-12-16T12:10:37.113Z,20.97
2018-12-16T12:13:06.151Z,20.25
2018-12-16T12:15:35.191Z,20.82
2018-12-16T12:18:04.001Z,21.15
2018-12-16T12:20:32.914Z,20.40
2018-12-16T12:23:01.793Z,21.95
2018-12-16T12:25:31.511Z,21.55
2018-12-16T12:28:00.511Z,23.20
2018-12-16T12:30:29.671Z,23.27
2018-12-16T12:32:58.839Z,20.37
2018-12-16T12:35:27.871Z,22.35
2018-12-16T12:37:56.972Z,21.45
2018-12-16T12:40:25.860Z,22.93
2018-12-16T12:42:54.748Z,23.32
2018-12-16T12:45:23.635Z,21.00
2018-12-16T12:47:52.412Z,21.82
2018-12-16T12:50:21.518Z,22.50
2018-12-16T12:52:50.188Z,21.33
2018-12-16T12:55:18.990Z,23.00
2018-12-16T12:57:48.029Z,21.68
2018-12-16T13:00:17.070Z,22.20
2018-12-16T13:02:45.876Z,24.50
2018-12-16T13:05:14.787Z,24.12
2018-12-16T13:07:43.635Z,22.65
2018-12-16T13:10:12.866Z,22.10
2018-12-16T13:12:41.908Z,26.10
2018-12-16T13:15:10.918Z,23.12
2018-12-16T13:17:46.347Z,23.67
2018-12-16T13:20:15.028Z,24.20
2018-12-16T13:22:44.068Z,22.93
2018-12-16T13:25:24.270Z,23.98
2018-12-16T13:27:53.428Z,23.45
2018-12-16T13:30:22.170Z,25.95
2018-12-16T13:32:51.266Z,23.38
2018-12-16T13:35:20.307Z,25.37
2018-12-16T13:37:49.225Z,24.45
2018-12-16T13:40:18.507Z,22.85
2018-12-16T13:42:47.483Z,23.98
2018-12-16T13:45:16.286Z,23.87
2018-12-16T13:47:45.089Z,23.35
2018-12-16T13:50:14.099Z,23.83
2018-12-16T13:52:42.989Z,22.62
2018-12-16T13:55:11.904Z,24.43
2018-12-16T13:57:41.303Z,25.25
2018-12-16T14:00:10.462Z,25.97
2018-12-16T14:02:39.383Z,24.30
2018-12-16T14:05:08.785Z,24.20
2018-12-16T14:07:37.702Z,25.48
2018-12-16T14:10:06.983Z,26.17
2018-12-16T14:12:35.942Z,26.87
2018-12-16T14:15:05.661Z,25.75
2018-12-16T14:17:34.828Z,25.80
2018-12-16T14:20:04.103Z,27.45
2018-12-16T14:22:33.021Z,26.73
2018-12-16T14:25:02.127Z,26.35
2018-12-16T14:27:31.039Z,27.90
2018-12-16T14:30:00.259Z,27.17
2018-12-16T14:32:29.061Z,26.52
2018-12-16T14:34:57.984Z,25.50
2018-12-16T14:37:26.982Z,27.15
2018-12-16T14:39:55.871Z,28.85
2018-12-16T14:42:24.967Z,27.98
2018-12-16T14:44:53.852Z,30.25
2018-12-16T14:47:23.061Z,28.00
2018-12-16T14:49:52.046Z,31.68
2018-12-16T14:52:20.899Z,29.37
2018-12-16T14:54:49.939Z,27.55
2018-12-16T14:57:18.859Z,29.63
2018-12-16T14:59:47.608Z,28.85
2018-12-16T15:02:16.584Z,29.72
2018-12-16T15:04:45.619Z,28.80
2018-12-16T15:07:14.466Z,26.60
2018-12-16T15:09:43.349Z,28.30
2018-12-16T15:12:12.346Z,25.88
2018-12-16T15:14:41.176Z,26.37
2018-12-16T15:17:10.576Z,27.95
2018-12-16T15:19:39.503Z,25.65
2018-12-16T15:22:08.312Z,28.12
2018-12-16T15:24:37.200Z,25.60
2018-12-16T15:27:06.022Z,33.25
2018-12-16T15:29:34.756Z,27.65
2018-12-16T15:32:03.735Z,37.50
2018-12-16T15:34:32.896Z,43.52
2018-12-16T15:37:01.871Z,31.15
2018-12-16T15:39:31.094Z,64.15
2018-12-16T15:41:59.937Z,41.42
2018-12-16T15:44:28.936Z,48.40
2018-12-16T15:46:57.857Z,34.63
2018-12-16T15:49:26.772Z,28.00
2018-12-16T15:51:55.822Z,29.27
2018-12-16T15:54:24.811Z,25.17
2018-12-16T15:56:54.044Z,27.42
2018-12-16T15:59:23.217Z,28.67
2018-12-16T16:01:52.700Z,26.93
2018-12-16T16:04:21.673Z,25.48
2018-12-16T16:06:51.685Z,25.80
2018-12-16T16:09:22.095Z,27.25
2018-12-16T16:11:51.779Z,25.45
2018-12-16T16:17:25.541Z,24.63
2018-12-16T16:19:55.237Z,24.72
2018-12-16T16:22:25.224Z,24.63
2018-12-16T16:24:54.978Z,24.30
2018-12-16T16:27:24.277Z,25.50
2018-12-16T16:29:54.090Z,25.32
2018-12-16T16:32:23.904Z,25.50
2018-12-16T16:34:54.219Z,26.42
2018-12-16T16:37:25.760Z,29.82
2018-12-16T16:39:55.576Z,33.30
2018-12-16T16:42:25.864Z,26.85
2018-12-16T16:44:55.587Z,26.87
2018-12-16T16:47:25.106Z,26.42
2018-12-16T16:49:54.618Z,23.07
2018-12-16T16:52:24.292Z,23.05
2018-12-16T16:54:53.829Z,23.57
2018-12-16T16:57:23.537Z,24.27
2018-12-16T16:59:53.853Z,25.95
2018-12-16T17:02:23.474Z,21.87
2018-12-16T17:04:54.056Z,24.55
2018-12-16T17:07:24.222Z,25.23
2018-12-16T17:09:53.674Z,25.72
2018-12-16T17:12:23.235Z,25.00
2018-12-16T17:14:52.742Z,25.88
2018-12-16T17:17:21.917Z,25.25
2018-12-16T17:19:52.337Z,24.60
2018-12-16T17:22:22.130Z,22.58
2018-12-16T17:24:58.207Z,22.52
2018-12-16T17:27:27.745Z,22.80
2018-12-16T17:29:57.378Z,23.05
2018-12-16T17:32:27.375Z,22.67
2018-12-16T17:34:57.010Z,22.13
2018-12-16T17:37:26.662Z,23.42
2018-12-16T17:39:56.199Z,22.00
2018-12-16T17:42:26.015Z,24.52
2018-12-16T17:44:55.338Z,24.92
2018-12-16T17:47:25.111Z,25.20
2018-12-16T17:49:54.629Z,22.37
2018-12-16T17:52:24.374Z,24.10
2018-12-16T17:54:54.079Z,25.30
2018-12-16T17:57:23.971Z,23.85
2018-12-16T17:59:53.283Z,23.83
2018-12-16T18:02:22.969Z,21.77
2018-12-16T18:04:52.740Z,26.10
2018-12-16T18:07:22.609Z,21.23
2018-12-16T18:09:52.691Z,30.45
2018-12-16T18:12:22.635Z,22.98
2018-12-16T18:14:52.210Z,24.12
2018-12-16T18:17:22.367Z,22.73
2018-12-16T18:19:52.283Z,22.02
2018-12-16T18:22:22.101Z,22.85
2018-12-16T18:24:52.118Z,25.23
2018-12-16T18:27:40.263Z,21.37
2018-12-16T18:30:11.206Z,21.62
2018-12-16T18:32:41.121Z,20.20
2018-12-16T18:35:11.767Z,20.08
2018-12-16T18:37:42.053Z,20.15
2018-12-16T18:40:11.480Z,21.37
2018-12-16T18:42:41.349Z,20.35
2018-12-16T18:45:11.625Z,20.88
2018-12-16T18:47:41.534Z,20.05
2018-12-16T18:50:14.519Z,19.85
2018-12-16T18:52:44.645Z,19.48
2018-12-16T18:55:14.551Z,20.40
2018-12-16T18:57:44.886Z,20.62
2018-12-16T19:00:15.124Z,20.08
2018-12-16T19:02:45.238Z,19.48
2018-12-16T19:05:15.450Z,20.57
2018-12-16T19:07:45.264Z,22.13
2018-12-16T19:10:15.022Z,21.55
2018-12-16T19:12:45.205Z,21.90
2018-12-16T19:15:16.136Z,20.02
2018-12-16T19:17:52.504Z,21.90
2018-12-16T19:20:22.447Z,22.48
2018-12-16T19:22:52.730Z,22.52
2018-12-16T19:25:22.728Z,21.35
2018-12-16T19:27:52.208Z,20.17
2018-12-16T19:30:21.983Z,20.77
2018-12-16T19:33:13.594Z,23.75
2018-12-16T19:35:43.724Z,23.80
2018-12-16T19:38:13.087Z,23.62
2018-12-16T19:40:43.111Z,23.95
2018-12-16T19:43:13.260Z,21.77
2018-12-16T19:45:43.694Z,23.90
2018-12-16T19:48:13.507Z,25.40
2018-12-16T19:50:44.154Z,22.02
2018-12-16T19:53:13.751Z,23.20
2018-12-16T19:55:43.665Z,22.90
2018-12-16T19:58:13.577Z,25.02
2018-12-16T20:00:43.487Z,22.85
2018-12-16T20:03:14.033Z,22.65
2018-12-16T20:05:48.479Z,23.00
2018-12-16T20:08:18.544Z,22.15
2018-12-16T20:10:48.123Z,21.85
2018-12-16T20:13:17.374Z,20.85
2018-12-16T20:15:47.290Z,23.07
2018-12-16T20:18:17.514Z,25.68
2018-12-16T20:20:47.097Z,25.02
2018-12-16T20:23:17.002Z,23.50
2018-12-16T20:25:47.261Z,22.82
2018-12-16T20:28:16.614Z,22.45
2018-12-16T20:30:46.579Z,24.15
2018-12-16T20:33:16.683Z,23.98
2018-12-16T20:35:46.431Z,23.40
2018-12-16T20:38:15.977Z,23.05
2018-12-16T20:40:45.973Z,25.68
2018-12-16T20:43:22.449Z,24.55
2018-12-16T20:45:52.320Z,22.42
2018-12-16T20:48:26.127Z,21.40
2018-12-16T20:50:55.644Z,21.65
2018-12-16T20:53:25.095Z,21.77
2018-12-16T20:55:54.859Z,22.73
2018-12-16T20:58:24.766Z,21.17
2018-12-16T21:00:55.397Z,22.75
2018-12-16T21:03:25.722Z,22.30
2018-12-16T21:05:56.458Z,23.52
2018-12-16T21:08:27.193Z,20.85
2018-12-16T21:10:58.670Z,19.80
2018-12-16T21:13:33.474Z,20.45
2018-12-16T21:17:07.682Z,19.23
2018-12-16T21:19:37.819Z,18.52
2018-12-16T21:22:11.831Z,20.17
2018-12-16T21:24:42.055Z,16.67
2018-12-16T21:27:12.139Z,19.98
2018-12-16T21:29:42.283Z,16.57
2018-12-16T21:32:12.165Z,17.07
2018-12-16T21:34:41.819Z,16.93
2018-12-16T21:37:11.720Z,17.20
2018-12-16T21:39:42.266Z,15.80
2018-12-16T21:42:11.690Z,19.32
2018-12-16T21:44:41.382Z,16.35
2018-12-16T21:47:11.602Z,17.45
2018-12-16T21:49:41.489Z,15.60
2018-12-16T21:52:10.929Z,15.53
2018-12-16T21:54:42.468Z,16.02
2018-12-16T21:57:15.634Z,14.20
2018-12-16T21:59:45.482Z,15.03
2018-12-16T22:02:15.480Z,14.50
2018-12-16T22:04:45.317Z,14.20
2018-12-16T22:07:16.071Z,14.63
2018-12-16T22:09:45.701Z,14.85
2018-12-16T22:12:15.232Z,15.75
2018-12-16T22:14:45.226Z,17.10
2018-12-16T22:17:14.777Z,16.45
2018-12-16T22:19:44.540Z,17.02
2018-12-16T22:22:14.517Z,16.07
2018-12-16T22:24:43.908Z,15.23
2018-12-16T22:27:13.740Z,14.93
2018-12-16T22:29:43.445Z,15.25
2018-12-16T22:32:12.951Z,15.23
2018-12-16T22:34:43.192Z,21.07
2018-12-16T22:37:13.398Z,16.50
2018-12-16T22:39:43.522Z,18.30
2018-12-16T22:42:13.360Z,14.63
2018-12-16T22:44:43.276Z,17.70
2018-12-16T22:47:13.887Z,17.17
2018-12-16T22:49:47.795Z,17.12
2018-12-16T22:52:17.740Z,17.80
2018-12-16T22:54:48.131Z,15.83
2018-12-16T22:57:18.354Z,16.17
2018-12-16T22:59:47.678Z,15.45
2018-12-16T23:02:17.814Z,15.13
2018-12-16T23:04:47.794Z,16.15
2018-12-16T23:07:17.725Z,16.40
2018-12-16T23:09:47.201Z,15.70
2018-12-16T23:12:17.026Z,16.17
2018-12-16T23:14:47.046Z,16.48
2018-12-16T23:17:17.075Z,15.75
2018-12-16T23:19:50.975Z,16.60
2018-12-16T23:22:20.992Z,20.72
2018-12-16T23:24:51.112Z,16.87
2018-12-16T23:27:21.096Z,15.78
2018-12-16T23:29:50.873Z,16.23
2018-12-16T23:32:20.860Z,15.83
2018-12-16T23:34:50.877Z,16.00
2018-12-16T23:37:20.562Z,14.70
2018-12-16T23:39:50.149Z,14.80
2018-12-16T23:42:19.670Z,16.75
2018-12-16T23:44:49.174Z,22.22
2018-12-16T23:47:19.433Z,24.67
2018-12-16T23:49:48.835Z,18.62
2018-12-16T23:52:18.643Z,17.32
2018-12-16T23:54:48.259Z,14.30
2018-12-16T23:57:17.866Z,14.85
2018-12-16T23:59:47.467Z,16.32
